Marina Lobra — IXVN — position and weather

sailwx.info

Track history (hours):
 
Tides and Currents Weather Stations Pressure Air Temp Water Temp Dewpoint Dewpoint Depression Visibility Wind Speed Wind Dir Waves Ship Positions

Marina Lobra

Last reported at 2015-Jul-29 06:32 UTC. Time now 2015-Jul-30 02:05 UTC.
Position N 40°50' E 014°16'.

Length 56 m; draft 2.5 m.

Type: Ship (hazmat cat C). MMSI: 247188300.

Date/timePositionNaut miles runAvg speedWind from/ knotsBaromVisibWave heightAir tempDewpointWater temp
2015-Jul-29 06:32N 40°50' E 014°16'5 5.0
2015-Jul-29 05:33N 40°45' E 014°17'6 5.5
2015-Jul-29 04:33N 40°40' E 014°16'5 5.1
2015-Jul-29 03:33N 40°35' E 014°15'1 1.4
2015-Jul-29 02:33N 40°33' E 014°14'0 0.0
2015-Jul-29 01:34N 40°33' E 014°14'0 0.0
2015-Jul-29 00:33N 40°33' E 014°14'0 0.0
2015-Jul-28 23:33N 40°33' E 014°14'0 0.0
2015-Jul-28 22:33N 40°33' E 014°14'0 0.0
2015-Jul-28 21:33N 40°33' E 014°14'0 0.0
2015-Jul-28 20:33N 40°33' E 014°14'0 0.0
2015-Jul-28 19:33N 40°33' E 014°14'1 0.5
2015-Jul-28 18:33N 40°34' E 014°15'4 3.6
2015-Jul-28 17:33N 40°37' E 014°15'5 5.3
2015-Jul-28 16:33N 40°43' E 014°16'5 5.3
2015-Jul-28 15:33N 40°48' E 014°16'2 0.1
2015-Jul-27 18:33N 40°50' E 014°17'3 3.3
2015-Jul-27 17:34N 40°46' E 014°18'3 3.1
2015-Jul-27 16:34N 40°43' E 014°17'5 4.7
2015-Jul-27 15:33N 40°48' E 014°18'2 2.2
2015-Jul-27 14:32N 40°50' E 014°17'0 0.0
2015-Jul-27 13:31N 40°50' E 014°17'0 0.0
2015-Jul-27 12:33N 40°50' E 014°17'0 0.0
2015-Jul-27 11:33N 40°50' E 014°17'0 0.0
2015-Jul-27 10:33N 40°50' E 014°17'0 0.0
2015-Jul-27 09:33N 40°50' E 014°17'0 0.0
2015-Jul-27 08:33N 40°50' E 014°17'0 0.0
2015-Jul-27 07:33N 40°50' E 014°17'  
2015-Jul-24 11:05N 40°51' E 014°16'0 0.0
2015-Jul-24 09:04N 40°51' E 014°16'0 0.0
2015-Jul-24 08:18N 40°51' E 014°16'0 0.0
2015-Jul-24 07:24N 40°51' E 014°16'1 0.0
2015-Jul-23 10:25N 40°50' E 014°16'1 0.8
2015-Jul-23 09:33N 40°50' E 014°17'0 0.0
2015-Jul-23 08:33N 40°50' E 014°17'0 0.0
2015-Jul-23 07:34N 40°50' E 014°17'0 0.0
2015-Jul-21 13:33N 40°50' E 014°17'0 0.0
2015-Jul-21 12:30N 40°50' E 014°17'0 0.0
2015-Jul-21 11:33N 40°50' E 014°17'0 0.0
2015-Jul-21 10:33N 40°50' E 014°17'1 0.1
2015-Jul-20 20:09N 40°50' E 014°16'0 0.2
2015-Jul-20 19:07N 40°51' E 014°16'0 0.1
2015-Jul-20 16:32N 40°50' E 014°16'1 0.5
2015-Jul-20 14:33N 40°50' E 014°18'0 0.0
2015-Jul-20 13:32N 40°50' E 014°18'0 0.0
2015-Jul-20 12:33N 40°50' E 014°18'0 0.0
2015-Jul-20 11:33N 40°50' E 014°18'0 0.0
2015-Jul-20 10:33N 40°50' E 014°18'0 0.2
2015-Jul-20 09:32N 40°50' E 014°17'0 0.0
2015-Jul-20 08:32N 40°50' E 014°17'0 0.0
2015-Jul-20 07:33N 40°50' E 014°17'0 0.0
2015-Jul-20 06:33N 40°50' E 014°17'  
Track history (hours):
 
Tides and Currents Weather Stations Pressure Air Temp Water Temp Dewpoint Dewpoint Depression Visibility Wind Speed Wind Dir Waves Ship Positions

Marina Lobra

Last reported at 2015-Jul-29 06:32 UTC. Time now 2015-Jul-30 02:05 UTC.
Position N 40°50' E 014°16'.

Length 56 m; draft 2.5 m.

Type: Ship (hazmat cat C). MMSI: 247188300.

Date/timePositionNaut miles runAvg speedWind from/ knotsBaromVisibWave heightAir tempDewpointWater temp
2015-Jul-29 06:32N 40°50' E 014°16'5 5.0
2015-Jul-29 05:33N 40°45' E 014°17'6 5.5
2015-Jul-29 04:33N 40°40' E 014°16'5 5.1
2015-Jul-29 03:33N 40°35' E 014°15'1 1.4
2015-Jul-29 02:33N 40°33' E 014°14'0 0.0
2015-Jul-29 01:34N 40°33' E 014°14'0 0.0
2015-Jul-29 00:33N 40°33' E 014°14'0 0.0
2015-Jul-28 23:33N 40°33' E 014°14'0 0.0
2015-Jul-28 22:33N 40°33' E 014°14'0 0.0
2015-Jul-28 21:33N 40°33' E 014°14'0 0.0
2015-Jul-28 20:33N 40°33' E 014°14'0 0.0
2015-Jul-28 19:33N 40°33' E 014°14'1 0.5
2015-Jul-28 18:33N 40°34' E 014°15'4 3.6
2015-Jul-28 17:33N 40°37' E 014°15'5 5.3
2015-Jul-28 16:33N 40°43' E 014°16'5 5.3
2015-Jul-28 15:33N 40°48' E 014°16'2 0.1
2015-Jul-27 18:33N 40°50' E 014°17'3 3.3
2015-Jul-27 17:34N 40°46' E 014°18'3 3.1
2015-Jul-27 16:34N 40°43' E 014°17'5 4.7
2015-Jul-27 15:33N 40°48' E 014°18'2 2.2
2015-Jul-27 14:32N 40°50' E 014°17'0 0.0
2015-Jul-27 13:31N 40°50' E 014°17'0 0.0
2015-Jul-27 12:33N 40°50' E 014°17'0 0.0
2015-Jul-27 11:33N 40°50' E 014°17'0 0.0
2015-Jul-27 10:33N 40°50' E 014°17'0 0.0
2015-Jul-27 09:33N 40°50' E 014°17'0 0.0
2015-Jul-27 08:33N 40°50' E 014°17'0 0.0
2015-Jul-27 07:33N 40°50' E 014°17'  
2015-Jul-24 11:05N 40°51' E 014°16'0 0.0
2015-Jul-24 09:04N 40°51' E 014°16'0 0.0
2015-Jul-24 08:18N 40°51' E 014°16'0 0.0
2015-Jul-24 07:24N 40°51' E 014°16'1 0.0
2015-Jul-23 10:25N 40°50' E 014°16'1 0.8
2015-Jul-23 09:33N 40°50' E 014°17'0 0.0
2015-Jul-23 08:33N 40°50' E 014°17'0 0.0
2015-Jul-23 07:34N 40°50' E 014°17'0 0.0
2015-Jul-21 13:33N 40°50' E 014°17'0 0.0
2015-Jul-21 12:30N 40°50' E 014°17'0 0.0
2015-Jul-21 11:33N 40°50' E 014°17'0 0.0
2015-Jul-21 10:33N 40°50' E 014°17'1 0.1
2015-Jul-20 20:09N 40°50' E 014°16'0 0.2
2015-Jul-20 19:07N 40°51' E 014°16'0 0.1
2015-Jul-20 16:32N 40°50' E 014°16'1 0.5
2015-Jul-20 14:33N 40°50' E 014°18'0 0.0
2015-Jul-20 13:32N 40°50' E 014°18'0 0.0
2015-Jul-20 12:33N 40°50' E 014°18'0 0.0
2015-Jul-20 11:33N 40°50' E 014°18'0 0.0
2015-Jul-20 10:33N 40°50' E 014°18'0 0.2
2015-Jul-20 09:32N 40°50' E 014°17'0 0.0
2015-Jul-20 08:32N 40°50' E 014°17'0 0.0
2015-Jul-20 07:33N 40°50' E 014°17'0 0.0
2015-Jul-20 06:33N 40°50' E 014°17'  

Dump ship's entire track history